createdAt,value
2023-05-19T00:00:54.812Z,3.87
2023-05-19T00:03:21.926Z,3.40
2023-05-19T00:05:49.019Z,4.30
2023-05-19T00:08:17.059Z,3.93
2023-05-19T00:10:43.904Z,4.07
2023-05-19T00:13:10.548Z,3.60
2023-05-19T00:15:37.334Z,3.80
2023-05-19T00:18:03.790Z,4.27
2023-05-19T00:20:30.494Z,4.00
2023-05-19T00:22:57.096Z,4.10
2023-05-19T00:25:23.589Z,4.07
2023-05-19T00:27:50.011Z,3.50
2023-05-19T00:30:16.536Z,3.97
2023-05-19T00:32:42.952Z,3.93
2023-05-19T00:35:09.703Z,3.23
2023-05-19T00:37:36.069Z,3.77
2023-05-19T00:40:02.567Z,3.80
2023-05-19T00:42:28.995Z,3.23
2023-05-19T00:44:55.713Z,3.87
2023-05-19T00:47:22.368Z,3.60
2023-05-19T00:49:48.814Z,3.03
2023-05-19T00:52:15.486Z,3.90
2023-05-19T00:54:43.126Z,3.40
2023-05-19T00:57:09.609Z,3.70
2023-05-19T00:59:36.192Z,3.20
2023-05-19T01:02:02.835Z,3.80
2023-05-19T01:04:29.758Z,3.47
2023-05-19T01:06:56.520Z,3.87
2023-05-19T01:09:23.671Z,3.30
2023-05-19T01:11:50.534Z,3.30
2023-05-19T01:14:19.021Z,3.27
2023-05-19T01:17:05.217Z,3.40
2023-05-19T01:20:02.144Z,3.33
2023-05-19T01:22:36.958Z,3.13
2023-05-19T01:25:22.538Z,3.87
2023-05-19T01:28:23.426Z,3.37
2023-05-19T01:30:54.657Z,3.50
2023-05-19T01:33:22.942Z,3.40
2023-05-19T01:35:50.608Z,3.73
2023-05-19T01:38:19.264Z,3.60
2023-05-19T01:40:47.174Z,3.37
2023-05-19T01:43:18.640Z,3.67
2023-05-19T01:45:46.134Z,3.30
2023-05-19T01:48:13.672Z,3.27
2023-05-19T01:50:41.118Z,3.10
2023-05-19T01:53:07.909Z,3.50
2023-05-19T01:55:36.662Z,3.30
2023-05-19T01:58:26.609Z,3.03
2023-05-19T02:01:00.084Z,2.90
2023-05-19T02:03:51.371Z,3.90
2023-05-19T02:06:47.221Z,3.60
2023-05-19T02:09:25.457Z,3.27
2023-05-19T02:12:04.795Z,3.40
2023-05-19T02:14:49.495Z,2.97
2023-05-19T02:17:17.833Z,3.50
2023-05-19T02:19:44.799Z,3.17
2023-05-19T02:22:11.178Z,3.67
2023-05-19T02:24:37.717Z,2.57
2023-05-19T02:27:04.339Z,3.13
2023-05-19T02:29:30.764Z,3.60
2023-05-19T02:31:57.185Z,3.80
2023-05-19T02:34:23.617Z,3.50
2023-05-19T02:36:50.568Z,3.23
2023-05-19T02:39:17.015Z,3.80
2023-05-19T02:41:43.438Z,2.77
2023-05-19T02:44:09.976Z,2.80
2023-05-19T02:46:36.482Z,3.20
2023-05-19T02:49:02.899Z,3.53
2023-05-19T02:51:29.286Z,3.40
2023-05-19T02:53:55.782Z,2.30
2023-05-19T02:56:22.555Z,2.80
2023-05-19T02:58:48.947Z,2.83
2023-05-19T03:01:15.719Z,3.37
2023-05-19T03:03:42.261Z,3.20
2023-05-19T03:06:09.236Z,3.00
2023-05-19T03:08:36.090Z,3.00
2023-05-19T03:11:03.393Z,2.97
2023-05-19T03:13:30.039Z,3.77
2023-05-19T03:15:58.649Z,3.07
2023-05-19T03:18:26.804Z,2.90
2023-05-19T03:20:53.960Z,3.10
2023-05-19T03:23:21.563Z,3.30
2023-05-19T03:25:48.191Z,3.33
2023-05-19T03:28:14.556Z,2.93
2023-05-19T03:30:40.953Z,2.87
2023-05-19T03:33:07.534Z,3.43
2023-05-19T03:35:34.105Z,3.40
2023-05-19T03:38:00.514Z,3.17
2023-05-19T03:40:27.105Z,2.70
2023-05-19T03:42:54.371Z,3.03
2023-05-19T03:45:21.042Z,3.33
2023-05-19T03:47:47.659Z,3.37
2023-05-19T03:50:14.117Z,3.60
2023-05-19T03:52:40.487Z,3.37
2023-05-19T03:55:07.751Z,3.23
2023-05-19T03:57:37.265Z,3.50
2023-05-19T04:00:05.852Z,3.50
2023-05-19T04:02:32.314Z,3.30
2023-05-19T04:04:58.905Z,3.90
2023-05-19T04:07:25.694Z,3.47
2023-05-19T04:09:52.091Z,3.57
2023-05-19T04:12:18.468Z,4.17
2023-05-19T04:14:44.911Z,3.60
2023-05-19T04:17:11.700Z,3.33
2023-05-19T04:19:38.131Z,3.73
2023-05-19T04:22:04.771Z,3.77
2023-05-19T04:24:31.353Z,3.37
2023-05-19T04:27:02.324Z,3.37
2023-05-19T04:29:29.486Z,3.57
2023-05-19T04:31:57.109Z,3.27
2023-05-19T04:34:23.556Z,3.37
2023-05-19T04:36:52.404Z,3.47
2023-05-19T04:39:19.908Z,3.33
2023-05-19T04:41:46.332Z,3.87
2023-05-19T04:44:13.657Z,3.73
2023-05-19T04:46:40.254Z,4.17
2023-05-19T04:49:07.702Z,3.37
2023-05-19T04:51:35.701Z,3.90
2023-05-19T04:54:02.201Z,3.60
2023-05-19T04:56:28.825Z,3.50
2023-05-19T04:58:55.317Z,4.20
2023-05-19T05:01:25.873Z,4.43
2023-05-19T05:03:55.744Z,4.20
2023-05-19T05:06:22.361Z,3.90
2023-05-19T05:08:49.356Z,4.40
2023-05-19T05:11:16.661Z,3.87
2023-05-19T05:13:43.412Z,4.33
2023-05-19T05:16:10.682Z,3.70
2023-05-19T05:18:38.666Z,4.10
2023-05-19T05:21:06.783Z,4.13
2023-05-19T05:23:33.459Z,5.53
2023-05-19T05:26:03.111Z,4.57
2023-05-19T05:28:29.706Z,3.60
2023-05-19T05:30:57.288Z,4.30
2023-05-19T05:33:24.730Z,4.20
2023-05-19T05:35:51.355Z,4.53
2023-05-19T05:38:17.774Z,4.03
2023-05-19T05:40:44.148Z,4.83
2023-05-19T05:43:10.522Z,4.37
2023-05-19T05:45:36.965Z,4.00
2023-05-19T05:48:03.831Z,4.60
2023-05-19T05:50:30.620Z,3.90
2023-05-19T05:52:57.838Z,4.30
2023-05-19T05:55:24.590Z,4.70
2023-05-19T05:57:51.683Z,4.80
2023-05-19T06:00:18.777Z,4.90
2023-05-19T06:02:49.460Z,4.70
2023-05-19T06:05:16.526Z,4.10
2023-05-19T06:07:43.725Z,4.50
2023-05-19T06:10:10.348Z,5.17
2023-05-19T06:12:40.450Z,5.43
2023-05-19T06:15:08.004Z,4.53
2023-05-19T06:17:36.061Z,4.97
2023-05-19T06:20:04.876Z,5.00
2023-05-19T06:22:31.292Z,4.33
2023-05-19T06:24:57.739Z,4.90
2023-05-19T06:27:24.373Z,5.60
2023-05-19T06:29:50.957Z,4.63
2023-05-19T06:32:17.389Z,4.67
2023-05-19T06:34:44.029Z,5.43
2023-05-19T06:37:10.730Z,4.70
2023-05-19T06:39:38.166Z,5.17
2023-05-19T06:42:05.106Z,6.30
2023-05-19T06:44:31.485Z,7.27
2023-05-19T06:46:57.934Z,5.40
2023-05-19T06:49:24.469Z,4.97
2023-05-19T06:51:50.988Z,4.70
2023-05-19T06:54:17.543Z,5.80
2023-05-19T06:56:43.976Z,5.73
2023-05-19T06:59:10.766Z,5.40
2023-05-19T07:01:37.788Z,6.43
2023-05-19T07:04:04.435Z,5.30
2023-05-19T07:06:31.241Z,5.27
2023-05-19T07:08:57.668Z,4.53
2023-05-19T07:11:24.546Z,5.53
2023-05-19T07:13:50.967Z,5.20
2023-05-19T07:16:17.406Z,5.67
2023-05-19T07:18:43.996Z,5.17
2023-05-19T07:21:10.785Z,5.97
2023-05-19T07:23:37.156Z,5.70
2023-05-19T07:26:03.810Z,5.20
2023-05-19T07:28:30.180Z,5.80
2023-05-19T07:30:56.543Z,5.20
2023-05-19T07:33:23.033Z,5.77
2023-05-19T07:35:49.427Z,5.37
2023-05-19T07:38:15.826Z,6.00
2023-05-19T07:40:42.223Z,5.70
2023-05-19T07:43:08.716Z,5.33
2023-05-19T07:45:35.204Z,5.53
2023-05-19T07:48:01.767Z,6.00
2023-05-19T07:50:28.242Z,5.87
2023-05-19T07:52:54.708Z,5.60
2023-05-19T07:55:23.073Z,5.57
2023-05-19T07:57:50.805Z,6.10
2023-05-19T08:00:17.892Z,5.60
2023-05-19T08:02:44.813Z,7.07
2023-05-19T08:05:11.533Z,6.03
2023-05-19T08:07:37.973Z,7.40
2023-05-19T08:10:04.761Z,6.10
2023-05-19T08:12:31.301Z,7.07
2023-05-19T08:15:00.422Z,6.27
2023-05-19T08:17:27.674Z,6.30
2023-05-19T08:19:54.102Z,6.00
2023-05-19T08:22:20.661Z,5.80
2023-05-19T08:24:49.567Z,13.33
2023-05-19T08:27:17.072Z,6.60
2023-05-19T08:29:43.507Z,9.27
2023-05-19T08:32:12.949Z,6.97
2023-05-19T08:34:39.676Z,5.30
2023-05-19T08:37:06.876Z,5.40
2023-05-19T08:39:34.758Z,6.90
2023-05-19T08:42:01.539Z,5.73
2023-05-19T08:44:28.365Z,5.60
2023-05-19T08:46:56.234Z,6.57
2023-05-19T08:49:26.531Z,5.87
2023-05-19T08:52:06.271Z,6.20
2023-05-19T08:54:54.470Z,6.40
2023-05-19T08:57:24.773Z,5.87
2023-05-19T08:59:52.203Z,5.97
2023-05-19T09:02:19.655Z,6.60
2023-05-19T09:04:47.926Z,5.60
2023-05-19T09:07:15.273Z,6.23
2023-05-19T09:09:43.682Z,6.40
2023-05-19T09:12:13.792Z,5.70
2023-05-19T09:14:40.533Z,6.03
2023-05-19T09:17:07.192Z,5.83
2023-05-19T09:19:33.817Z,5.77
2023-05-19T09:22:01.375Z,6.30
2023-05-19T09:24:28.253Z,6.40
2023-05-19T09:27:00.087Z,5.83
2023-05-19T09:29:27.146Z,5.60
2023-05-19T09:31:55.898Z,6.63
2023-05-19T09:34:24.642Z,6.40
2023-05-19T09:36:53.172Z,6.13
2023-05-19T09:39:21.850Z,6.10
2023-05-19T09:41:54.976Z,7.03
2023-05-19T09:44:29.239Z,5.97
2023-05-19T09:46:56.200Z,7.13
2023-05-19T09:49:24.501Z,5.70
2023-05-19T09:51:58.692Z,6.23
2023-05-19T09:54:28.300Z,6.37
2023-05-19T09:57:03.435Z,5.80
2023-05-19T09:59:33.341Z,5.97
2023-05-19T10:02:01.648Z,6.00
2023-05-19T10:04:29.468Z,7.33
2023-05-19T10:06:59.329Z,7.07
2023-05-19T10:09:27.319Z,6.23
2023-05-19T10:11:55.250Z,6.60
2023-05-19T10:14:26.672Z,16.40
2023-05-19T10:16:55.446Z,8.93
2023-05-19T10:19:23.736Z,6.90
2023-05-19T10:21:51.004Z,7.40
2023-05-19T10:24:18.086Z,6.00
2023-05-19T10:26:48.161Z,6.43
2023-05-19T10:29:19.902Z,7.27
2023-05-19T10:31:47.670Z,6.70
2023-05-19T10:34:32.500Z,5.87
2023-05-19T10:37:22.162Z,6.50
2023-05-19T10:39:51.219Z,6.60
2023-05-19T10:42:34.749Z,6.03
2023-05-19T10:45:16.181Z,7.30
2023-05-19T10:47:43.515Z,6.00
2023-05-19T10:50:11.100Z,6.40
2023-05-19T10:52:38.532Z,7.70
2023-05-19T10:55:08.604Z,6.03
2023-05-19T10:57:35.457Z,6.40
2023-05-19T11:00:28.193Z,6.17
2023-05-19T11:02:57.805Z,6.87
2023-05-19T11:05:29.427Z,6.90
2023-05-19T11:08:10.669Z,8.23
2023-05-19T11:10:37.072Z,7.90
2023-05-19T11:13:06.613Z,7.10
2023-05-19T11:15:39.099Z,6.30
2023-05-19T11:18:05.667Z,5.30
2023-05-19T11:20:34.668Z,5.70
2023-05-19T11:23:09.290Z,5.97
2023-05-19T11:25:46.921Z,6.43
2023-05-19T11:28:19.925Z,5.50
2023-05-19T11:30:50.773Z,5.70
2023-05-19T11:33:20.861Z,5.60
2023-05-19T11:35:50.273Z,6.50
2023-05-19T11:38:20.465Z,5.83
2023-05-19T11:40:49.638Z,5.53
2023-05-19T11:43:18.624Z,6.37
2023-05-19T11:45:45.610Z,5.57
2023-05-19T11:48:12.815Z,6.87
2023-05-19T11:50:43.792Z,5.80
2023-05-19T11:53:13.967Z,7.17
2023-05-19T11:55:46.674Z,6.17
2023-05-19T11:58:13.835Z,6.90
2023-05-19T12:00:42.705Z,6.17
2023-05-19T12:03:09.923Z,6.40
2023-05-19T12:05:41.802Z,5.50
2023-05-19T12:08:09.792Z,5.83
2023-05-19T12:10:36.817Z,6.90
2023-05-19T12:13:03.589Z,6.00
2023-05-19T12:15:31.849Z,5.50
2023-05-19T12:18:01.760Z,6.33
2023-05-19T12:20:31.947Z,5.70
2023-05-19T12:23:00.049Z,6.10
2023-05-19T12:25:26.525Z,5.53
2023-05-19T12:27:58.138Z,5.97
2023-05-19T12:30:26.694Z,5.37
2023-05-19T12:32:54.152Z,6.00
2023-05-19T12:35:20.764Z,4.60
2023-05-19T12:37:49.063Z,5.67
2023-05-19T12:40:16.787Z,6.33
2023-05-19T12:42:46.672Z,5.80
2023-05-19T12:45:13.030Z,5.83
2023-05-19T12:47:39.490Z,6.80
2023-05-19T12:50:10.766Z,6.37
2023-05-19T12:52:45.700Z,6.33
2023-05-19T12:55:12.435Z,6.67
2023-05-19T12:57:41.017Z,6.13
2023-05-19T13:00:17.440Z,6.57
2023-05-19T13:03:05.020Z,5.83
2023-05-19T13:05:39.680Z,5.03
2023-05-19T13:08:10.024Z,5.70
2023-05-19T13:10:38.220Z,5.63
2023-05-19T13:13:05.744Z,6.30
2023-05-19T13:15:35.624Z,5.03
2023-05-19T13:18:04.084Z,5.90
2023-05-19T13:20:30.738Z,5.37
2023-05-19T13:22:57.471Z,5.63
2023-05-19T13:25:24.209Z,5.37
2023-05-19T13:27:50.973Z,5.60
2023-05-19T13:30:18.586Z,4.70
2023-05-19T13:32:45.963Z,5.40
2023-05-19T13:35:13.959Z,6.10
2023-05-19T13:37:42.152Z,5.10
2023-05-19T13:40:09.755Z,5.13
2023-05-19T13:42:36.337Z,5.80
2023-05-19T13:45:03.584Z,5.20
2023-05-19T13:47:30.292Z,5.70
2023-05-19T13:49:57.433Z,4.63
2023-05-19T13:52:23.872Z,5.43
2023-05-19T13:54:50.381Z,4.90
2023-05-19T13:57:16.980Z,5.30
2023-05-19T13:59:57.605Z,5.17
2023-05-19T14:02:27.890Z,5.13
2023-05-19T14:04:54.373Z,4.87
2023-05-19T14:07:21.145Z,5.80
2023-05-19T14:09:47.538Z,4.47
2023-05-19T14:12:13.938Z,4.90
2023-05-19T14:14:40.416Z,4.70
2023-05-19T14:17:06.827Z,5.47
2023-05-19T14:19:33.262Z,4.67
2023-05-19T14:22:00.125Z,4.93
2023-05-19T14:24:26.533Z,5.17
2023-05-19T14:26:53.691Z,4.70
2023-05-19T14:29:20.096Z,5.17
2023-05-19T14:31:46.539Z,5.53
2023-05-19T14:34:13.029Z,4.20
2023-05-19T14:36:39.416Z,5.27
2023-05-19T14:39:05.867Z,4.17
2023-05-19T14:41:32.268Z,4.47
2023-05-19T14:43:58.652Z,4.07
2023-05-19T14:46:25.182Z,4.00
2023-05-19T14:48:51.554Z,5.30
2023-05-19T14:51:17.922Z,4.43
2023-05-19T14:53:44.292Z,4.50
2023-05-19T14:56:10.701Z,3.93
2023-05-19T14:58:37.153Z,4.93
2023-05-19T15:01:03.866Z,4.13
2023-05-19T15:03:30.443Z,4.57
2023-05-19T15:05:56.861Z,5.20
2023-05-19T15:08:23.514Z,4.40
2023-05-19T15:10:50.547Z,5.30
2023-05-19T15:13:18.720Z,5.87
2023-05-19T15:15:45.868Z,5.40
2023-05-19T15:18:13.068Z,4.87
2023-05-19T15:20:39.506Z,5.90
2023-05-19T15:23:05.998Z,5.30
2023-05-19T15:25:32.377Z,5.37
2023-05-19T15:27:58.761Z,6.03
2023-05-19T15:30:25.204Z,5.40
2023-05-19T15:32:51.682Z,4.97
2023-05-19T15:35:18.102Z,5.10
2023-05-19T15:37:44.488Z,5.33
2023-05-19T15:40:11.476Z,6.50
2023-05-19T15:42:37.862Z,5.20
2023-05-19T15:45:05.690Z,5.73
2023-05-19T15:47:32.089Z,5.40
2023-05-19T15:49:58.615Z,6.23
2023-05-19T15:52:25.363Z,6.90
2023-05-19T15:54:51.930Z,6.23
2023-05-19T15:57:18.319Z,6.00
2023-05-19T15:59:44.771Z,6.67
2023-05-19T16:02:11.413Z,6.00
2023-05-19T16:04:37.925Z,6.13
2023-05-19T16:07:04.429Z,6.40
2023-05-19T16:09:30.839Z,6.77
2023-05-19T16:11:57.392Z,6.10
2023-05-19T16:14:24.396Z,6.67
2023-05-19T16:16:51.062Z,6.53
2023-05-19T16:19:17.804Z,6.63
2023-05-19T16:21:44.200Z,6.40
2023-05-19T16:24:10.764Z,7.30
2023-05-19T16:26:37.144Z,6.57
2023-05-19T16:29:03.591Z,6.00
2023-05-19T16:31:30.249Z,6.20
2023-05-19T16:33:56.758Z,6.80
2023-05-19T16:36:23.146Z,6.20
2023-05-19T16:38:49.563Z,6.73
2023-05-19T16:41:15.991Z,6.37
2023-05-19T16:43:42.425Z,6.73
2023-05-19T16:46:10.023Z,6.07
2023-05-19T16:48:36.537Z,6.53
2023-05-19T16:51:03.030Z,7.00
2023-05-19T16:53:29.442Z,6.70
2023-05-19T16:55:55.803Z,8.97
2023-05-19T16:58:22.237Z,7.43
2023-05-19T17:00:51.915Z,6.90
2023-05-19T17:03:18.889Z,6.40
2023-05-19T17:05:45.674Z,7.13
2023-05-19T17:08:12.661Z,6.13
2023-05-19T17:10:39.259Z,6.23
2023-05-19T17:13:05.790Z,7.10
2023-05-19T17:15:33.850Z,7.10
2023-05-19T17:18:00.321Z,6.70
2023-05-19T17:20:26.824Z,6.90
2023-05-19T17:22:53.209Z,8.20
2023-05-19T17:25:19.604Z,6.70
2023-05-19T17:27:46.210Z,6.67
2023-05-19T17:30:13.190Z,7.00
2023-05-19T17:32:39.859Z,6.90
2023-05-19T17:35:07.062Z,6.40
2023-05-19T17:37:33.496Z,7.10
2023-05-19T17:39:59.932Z,7.20
2023-05-19T17:42:26.471Z,7.90
2023-05-19T17:44:52.837Z,6.87
2023-05-19T17:47:19.240Z,6.77
2023-05-19T17:49:46.141Z,7.07
2023-05-19T17:52:12.810Z,6.60
2023-05-19T17:54:39.405Z,6.80
2023-05-19T17:57:10.751Z,7.67
2023-05-19T17:59:37.371Z,7.63
2023-05-19T18:02:04.332Z,6.90
2023-05-19T18:04:31.257Z,7.40
2023-05-19T18:06:59.188Z,7.27
2023-05-19T18:09:28.732Z,7.80
2023-05-19T18:11:55.529Z,7.53
2023-05-19T18:14:21.968Z,8.17
2023-05-19T18:16:49.954Z,7.33
2023-05-19T18:19:16.700Z,7.50
2023-05-19T18:21:43.098Z,7.53
2023-05-19T18:24:11.244Z,8.10
2023-05-19T18:26:41.588Z,8.03
2023-05-19T18:29:11.454Z,7.20
2023-05-19T18:31:38.196Z,7.50
2023-05-19T18:34:04.716Z,7.60
2023-05-19T18:36:31.470Z,7.60
2023-05-19T18:38:59.201Z,7.40
2023-05-19T18:41:25.797Z,7.90
2023-05-19T18:43:52.166Z,7.53
2023-05-19T18:46:18.702Z,7.90
2023-05-19T18:48:45.297Z,7.30
2023-05-19T18:51:14.100Z,6.93
2023-05-19T18:53:40.476Z,7.77
2023-05-19T18:56:07.276Z,7.67
2023-05-19T18:58:33.641Z,8.70
2023-05-19T19:01:00.038Z,7.73
2023-05-19T19:03:26.607Z,7.00
2023-05-19T19:05:56.758Z,7.70
2023-05-19T19:08:23.195Z,7.20
2023-05-19T19:10:51.367Z,7.63
2023-05-19T19:13:18.274Z,7.17
2023-05-19T19:15:45.105Z,6.77
2023-05-19T19:18:11.868Z,7.43
2023-05-19T19:20:38.325Z,7.80
2023-05-19T19:23:06.474Z,6.83
2023-05-19T19:25:33.412Z,7.30
2023-05-19T19:27:59.770Z,7.80
2023-05-19T19:30:26.832Z,6.90
2023-05-19T19:32:54.777Z,7.77
2023-05-19T19:35:21.365Z,8.07
2023-05-19T19:37:47.831Z,6.83
2023-05-19T19:40:14.302Z,7.23
2023-05-19T19:42:40.872Z,7.50
2023-05-19T19:45:07.764Z,7.90
2023-05-19T19:47:34.232Z,7.70
2023-05-19T19:50:02.567Z,9.33
2023-05-19T19:52:28.979Z,7.63
2023-05-19T19:54:55.581Z,8.90
2023-05-19T19:57:22.002Z,8.67
2023-05-19T19:59:54.944Z,9.20
2023-05-19T20:02:21.627Z,10.30
2023-05-19T20:04:48.245Z,8.10
2023-05-19T20:07:14.642Z,8.70
2023-05-19T20:09:41.030Z,6.40
2023-05-19T20:12:07.601Z,7.63
2023-05-19T20:14:34.039Z,8.63
2023-05-19T20:17:00.423Z,7.60
2023-05-19T20:19:26.923Z,7.07
2023-05-19T20:21:53.337Z,7.43
2023-05-19T20:24:19.906Z,7.10
2023-05-19T20:26:46.427Z,6.90
2023-05-19T20:29:12.801Z,7.87
2023-05-19T20:31:39.183Z,7.67
2023-05-19T20:34:05.702Z,6.43
2023-05-19T20:36:32.161Z,7.23
2023-05-19T20:38:58.639Z,7.60
2023-05-19T20:41:25.042Z,7.03
2023-05-19T20:43:51.449Z,6.93
2023-05-19T20:46:17.959Z,7.33
2023-05-19T20:48:44.466Z,7.93
2023-05-19T20:51:10.856Z,7.10
2023-05-19T20:53:37.460Z,7.83
2023-05-19T20:56:05.498Z,7.23
2023-05-19T20:58:32.128Z,7.17
2023-05-19T21:00:58.632Z,6.90
2023-05-19T21:03:26.727Z,6.80
2023-05-19T21:05:53.358Z,7.13
2023-05-19T21:08:19.784Z,7.33
2023-05-19T21:10:46.252Z,7.10
2023-05-19T21:13:12.645Z,7.23
2023-05-19T21:15:39.410Z,8.07
2023-05-19T21:18:06.590Z,6.87
2023-05-19T21:20:33.197Z,8.07
2023-05-19T21:22:59.679Z,7.17
2023-05-19T21:25:26.051Z,7.60
2023-05-19T21:27:52.761Z,7.90
2023-05-19T21:30:19.152Z,7.50
2023-05-19T21:32:45.769Z,7.23
2023-05-19T21:35:12.166Z,7.37
2023-05-19T21:37:38.556Z,9.60
2023-05-19T21:40:05.763Z,9.10
2023-05-19T21:42:32.164Z,7.63
2023-05-19T21:44:58.579Z,8.53
2023-05-19T21:47:25.138Z,7.93
2023-05-19T21:49:51.529Z,7.53
2023-05-19T21:52:18.902Z,7.10
2023-05-19T21:54:45.643Z,7.73
2023-05-19T21:57:12.616Z,8.77
2023-05-19T21:59:39.164Z,7.67
2023-05-19T22:02:06.160Z,9.03
2023-05-19T22:04:32.760Z,9.03
2023-05-19T22:06:59.185Z,9.00
2023-05-19T22:09:26.089Z,9.70
2023-05-19T22:11:52.484Z,8.33
2023-05-19T22:14:18.898Z,8.70
2023-05-19T22:16:47.285Z,8.13
2023-05-19T22:19:14.489Z,8.17
2023-05-19T22:21:41.042Z,8.20
2023-05-19T22:24:07.457Z,9.13
2023-05-19T22:26:35.644Z,8.23
2023-05-19T22:29:02.522Z,9.30
2023-05-19T22:31:29.562Z,8.57
2023-05-19T22:33:56.057Z,8.53
2023-05-19T22:36:23.462Z,8.70
2023-05-19T22:38:49.895Z,10.30
2023-05-19T22:41:16.347Z,9.07
2023-05-19T22:43:43.390Z,11.20
2023-05-19T22:46:10.159Z,9.90
2023-05-19T22:48:36.668Z,10.57
2023-05-19T22:51:03.151Z,10.20
2023-05-19T22:53:29.571Z,9.17
2023-05-19T22:55:56.040Z,10.07
2023-05-19T22:58:22.536Z,10.17
2023-05-19T23:00:49.024Z,9.80
2023-05-19T23:03:15.547Z,9.83
2023-05-19T23:05:42.764Z,9.83
2023-05-19T23:08:09.234Z,9.43
2023-05-19T23:10:35.764Z,9.23
2023-05-19T23:13:02.246Z,8.93
2023-05-19T23:15:28.731Z,8.83
2023-05-19T23:17:55.363Z,9.60
2023-05-19T23:20:21.880Z,9.40
2023-05-19T23:22:48.277Z,9.00
2023-05-19T23:25:14.686Z,10.37
2023-05-19T23:27:41.198Z,10.33
2023-05-19T23:30:08.255Z,9.90
2023-05-19T23:32:34.651Z,10.07
2023-05-19T23:35:15.526Z,8.47
2023-05-19T23:37:42.265Z,9.60
2023-05-19T23:40:09.232Z,9.10
2023-05-19T23:42:36.324Z,9.00
2023-05-19T23:45:03.521Z,9.03
2023-05-19T23:47:30.030Z,9.07
2023-05-19T23:49:56.699Z,9.40
2023-05-19T23:52:23.136Z,9.00
2023-05-19T23:54:49.939Z,10.00
2023-05-19T23:57:16.600Z,9.43
2023-05-19T23:59:43.129Z,9.77
